Greenville, SC (29611)

6:30 PM EST on December 02, 2016 (GMT -0500)
Sunny Acres /Berea | | Change Station

Elev 1047 ft 34.87 °N, 82.45 °W | Updated 8 seconds ago

Clear
Clear
48.4 °F
Feels Like 48 °F
N
0.0
Wind Variable Wind from South
Gusts 0.0 mph

Today
High -- | Low -- °F
--% Chance of Precip.
Yesterday
High -- | Low -- °F
Precip. -- in
Pressure 30.17 in
Visibility 10.0 miles
Clouds Clear
Windchill 48 °F
Dew Point 35 °F
Humidity 59%
Rainfall 0.00 in
Snow Depth Not available.
7:20 AM 5:18 PM
Waxing Crescent, 11% visible
METAR KGMU 022253Z 16004KT 10SM CLR 13/M02 A3016 RMK AO2 SLP217 T01281017
Pressure 30.17 in
Visibility 10.0 miles
Clouds Clear
Windchill 48 °F
Dew Point 35 °F
Humidity 59%
Rainfall 0.00 in
Snow Depth Not available.
7:20 AM 5:18 PM
Waxing Crescent, 11% visible
METAR KGMU 022253Z 16004KT 10SM CLR 13/M02 A3016 RMK AO2 SLP217 T01281017

10-Day Weather Forecast

Almanac

Astronomy

Dec. 02, 2016 Rise Set
Actual Time
Civil Twilight
Nautical Twilight
Astronomical Twilight
Moon
Length of Visible Light
Length of Day
Tomorrow will be .
, % of the Moon is Illuminated

Today's Extremes

State Highs State Lows

Community

WunderPhotos

Upload Photos

1,955,378 photos uploaded!

WunderBlog® & News

Nearby

Air Quality

  Air Quality AQ Index Pollutant
Not available.

Snow Depth

Station Depth Elevation

Earthquake Activity

City Distance Mag. Time & Date
Minimum magnitude displayed is 2.5.

Coastal Water Temperatures

Place Temperature

Stations

Nearby Weather Stations

Station Location Temp. Windchill Dew Point Humidity Wind Precip. Elev Updated Type
                   

Watches & Warnings

There are currently no watches in effect.